createdAt,value
2024-01-11T00:01:51.508Z,19.70
2024-01-11T00:04:24.071Z,16.00
2024-01-11T00:06:56.969Z,17.20
2024-01-11T00:09:29.543Z,12.80
2024-01-11T00:12:02.070Z,23.80
2024-01-11T00:14:34.675Z,13.60
2024-01-11T00:17:07.855Z,16.80
2024-01-11T00:19:40.470Z,13.40
2024-01-11T00:22:13.100Z,13.60
2024-01-11T00:24:45.610Z,15.40
2024-01-11T00:27:18.352Z,15.20
2024-01-11T00:29:51.002Z,12.40
2024-01-11T00:32:23.644Z,10.90
2024-01-11T00:34:56.366Z,12.80
2024-01-11T00:37:29.064Z,11.60
2024-01-11T00:40:01.734Z,14.00
2024-01-11T00:42:36.022Z,9.80
2024-01-11T00:45:11.108Z,12.40
2024-01-11T00:47:43.846Z,13.10
2024-01-11T00:50:16.658Z,10.70
2024-01-11T00:52:49.290Z,10.50
2024-01-11T00:55:21.852Z,10.70
2024-01-11T00:57:54.386Z,11.70
2024-01-11T01:00:26.831Z,11.80
2024-01-11T01:02:59.375Z,12.10
2024-01-11T01:05:32.164Z,14.00
2024-01-11T01:08:05.086Z,12.10
2024-01-11T01:10:37.702Z,12.40
2024-01-11T01:13:10.290Z,13.20
2024-01-11T01:15:43.083Z,13.30
2024-01-11T01:18:15.876Z,11.70
2024-01-11T01:20:48.485Z,12.70
2024-01-11T01:23:21.166Z,12.90
2024-01-11T01:25:54.025Z,19.10
2024-01-11T01:28:26.584Z,13.50
2024-01-11T01:30:59.202Z,17.90
2024-01-11T01:33:32.009Z,17.30
2024-01-11T01:36:05.035Z,15.30
2024-01-11T01:38:37.723Z,13.10
2024-01-11T01:41:10.423Z,15.00
2024-01-11T01:43:43.036Z,15.80
2024-01-11T01:46:20.777Z,21.00
2024-01-11T01:48:54.145Z,14.10
2024-01-11T01:51:29.134Z,17.00
2024-01-11T01:54:03.076Z,14.70
2024-01-11T01:56:35.909Z,16.90
2024-01-11T01:59:09.083Z,14.40
2024-01-11T02:01:41.819Z,46.40
2024-01-11T02:04:15.752Z,24.60
2024-01-11T02:06:49.513Z,16.30
2024-01-11T02:09:22.429Z,18.50
2024-01-11T02:11:55.761Z,13.10
2024-01-11T02:14:28.898Z,14.50
2024-01-11T02:17:03.627Z,13.90
2024-01-11T02:19:36.658Z,13.20
2024-01-11T02:22:17.687Z,14.60
2024-01-11T02:24:50.318Z,14.30
2024-01-11T02:27:22.954Z,16.90
2024-01-11T02:29:55.539Z,14.50
2024-01-11T02:32:28.102Z,11.10
2024-01-11T02:35:00.893Z,21.10
2024-01-11T02:37:33.573Z,12.80
2024-01-11T02:40:07.512Z,17.60
2024-01-11T02:42:40.167Z,27.70
2024-01-11T02:45:14.696Z,22.00
2024-01-11T02:47:47.364Z,19.90
2024-01-11T02:50:20.125Z,20.80
2024-01-11T02:52:52.612Z,16.10
2024-01-11T02:55:25.565Z,27.70
2024-01-11T02:57:58.088Z,20.30
2024-01-11T03:00:30.550Z,14.60
2024-01-11T03:03:03.254Z,15.60
2024-01-11T03:05:35.984Z,21.70
2024-01-11T03:08:09.113Z,14.00
2024-01-11T03:10:42.614Z,14.70
2024-01-11T03:13:15.240Z,14.00
2024-01-11T03:15:47.832Z,13.30
2024-01-11T03:18:20.546Z,13.80
2024-01-11T03:20:53.609Z,13.50
2024-01-11T03:23:26.150Z,13.30
2024-01-11T03:25:59.135Z,12.80
2024-01-11T03:28:32.839Z,16.00
2024-01-11T03:31:05.672Z,13.00
2024-01-11T03:33:38.604Z,16.50
2024-01-11T03:36:15.407Z,14.40
2024-01-11T03:38:50.687Z,15.30
2024-01-11T03:41:24.815Z,13.00
2024-01-11T03:43:57.306Z,14.20
2024-01-11T03:46:29.971Z,19.10
2024-01-11T03:49:02.527Z,12.90
2024-01-11T03:51:35.088Z,12.70
2024-01-11T03:54:08.021Z,12.70
2024-01-11T03:56:42.708Z,12.20
2024-01-11T03:59:15.873Z,12.20
2024-01-11T04:01:48.908Z,17.20
2024-01-11T04:04:21.466Z,15.80
2024-01-11T04:06:55.186Z,13.60
2024-01-11T04:09:27.718Z,11.60
2024-01-11T04:12:00.323Z,12.30
2024-01-11T04:14:33.357Z,15.50
2024-01-11T04:17:06.176Z,31.20
2024-01-11T04:19:38.736Z,41.90
2024-01-11T04:22:11.354Z,82.50
2024-01-11T04:24:45.516Z,27.60
2024-01-11T04:27:18.098Z,285.80
2024-01-11T04:29:50.658Z,87.20
2024-01-11T04:32:23.394Z,107.00
2024-01-11T04:34:56.546Z,85.80
2024-01-11T04:37:31.065Z,82.40
2024-01-11T04:40:04.818Z,92.70
2024-01-11T04:42:37.629Z,89.90
2024-01-11T04:45:10.913Z,124.30
2024-01-11T04:47:43.620Z,142.90
2024-01-11T04:50:17.306Z,84.80
2024-01-11T04:52:51.096Z,72.50
2024-01-11T04:55:23.803Z,210.40
2024-01-11T04:57:56.264Z,88.40
2024-01-11T05:00:28.698Z,54.70
2024-01-11T05:03:01.377Z,182.90
2024-01-11T05:05:34.041Z,101.80
2024-01-11T05:08:07.075Z,42.40
2024-01-11T05:10:41.116Z,79.40
2024-01-11T05:13:13.809Z,57.00
2024-01-11T05:15:46.410Z,49.80
2024-01-11T05:18:19.151Z,30.40
2024-01-11T05:20:51.729Z,83.20
2024-01-11T05:23:24.371Z,27.00
2024-01-11T05:25:56.909Z,24.40
2024-01-11T05:28:29.473Z,49.90
2024-01-11T05:31:02.790Z,75.10
2024-01-11T05:33:35.826Z,64.90
2024-01-11T05:36:10.788Z,38.10
2024-01-11T05:38:44.387Z,25.50
2024-01-11T05:41:17.321Z,27.70
2024-01-11T05:43:50.201Z,23.10
2024-01-11T05:46:22.706Z,29.70
2024-01-11T05:48:55.357Z,29.60
2024-01-11T05:51:28.426Z,17.80
2024-01-11T05:54:00.975Z,16.00
2024-01-11T05:56:33.507Z,46.60
2024-01-11T05:59:06.078Z,28.70
2024-01-11T06:01:44.753Z,36.30
2024-01-11T06:04:17.601Z,35.30
2024-01-11T06:06:50.125Z,49.10
2024-01-11T06:09:22.689Z,19.20
2024-01-11T06:11:55.170Z,26.50
2024-01-11T06:14:28.840Z,27.00
2024-01-11T06:17:01.395Z,22.30
2024-01-11T06:19:34.074Z,16.40
2024-01-11T06:22:06.845Z,11.60
2024-01-11T06:24:39.569Z,10.10
2024-01-11T06:27:12.195Z,10.50
2024-01-11T06:29:44.894Z,13.70
2024-01-11T06:32:17.504Z,10.90
2024-01-11T06:34:50.186Z,14.00
2024-01-11T06:37:23.665Z,12.40
2024-01-11T06:39:56.241Z,10.10
2024-01-11T06:42:28.706Z,11.70
2024-01-11T06:45:02.458Z,16.80
2024-01-11T06:47:35.205Z,33.90
2024-01-11T06:50:10.837Z,12.80
2024-01-11T06:52:43.602Z,18.30
2024-01-11T06:55:16.248Z,12.70
2024-01-11T06:57:51.171Z,11.10
2024-01-11T07:00:24.067Z,12.80
2024-01-11T07:02:56.692Z,11.50
2024-01-11T07:05:30.633Z,7.70
2024-01-11T07:08:03.471Z,8.50
2024-01-11T07:10:36.239Z,8.40
2024-01-11T07:13:11.343Z,7.40
2024-01-11T07:15:44.173Z,7.30
2024-01-11T07:18:17.449Z,6.50
2024-01-11T07:20:50.349Z,8.50
2024-01-11T07:23:23.090Z,10.20
2024-01-11T07:25:55.746Z,7.90
2024-01-11T07:28:28.235Z,8.60
2024-01-11T07:31:00.785Z,10.80
2024-01-11T07:33:33.538Z,8.60
2024-01-11T07:36:07.987Z,8.90
2024-01-11T07:38:40.642Z,11.30
2024-01-11T07:41:13.829Z,9.10
2024-01-11T07:43:53.582Z,9.60
2024-01-11T07:46:35.623Z,8.00
2024-01-11T07:49:12.983Z,8.30
2024-01-11T07:51:45.556Z,9.00
2024-01-11T07:54:18.684Z,10.20
2024-01-11T07:56:51.208Z,7.50
2024-01-11T07:59:23.783Z,11.80
2024-01-11T08:01:56.594Z,28.40
2024-01-11T08:04:29.135Z,10.90
2024-01-11T08:07:03.211Z,16.60
2024-01-11T08:09:35.936Z,9.70
2024-01-11T08:12:11.101Z,8.30
2024-01-11T08:14:44.220Z,8.40
2024-01-11T08:17:17.425Z,8.20
2024-01-11T08:19:49.897Z,7.30
2024-01-11T08:22:27.484Z,8.20
2024-01-11T08:25:00.545Z,8.70
2024-01-11T08:27:33.222Z,9.50
2024-01-11T08:30:07.179Z,8.10
2024-01-11T08:32:40.999Z,21.50
2024-01-11T08:35:14.262Z,10.90
2024-01-11T08:37:47.013Z,11.50
2024-01-11T08:40:19.604Z,8.80
2024-01-11T08:42:52.152Z,8.40
2024-01-11T08:45:24.665Z,8.80
2024-01-11T08:47:58.847Z,8.30
2024-01-11T08:50:33.994Z,8.70
2024-01-11T08:53:06.872Z,7.70
2024-01-11T08:55:39.410Z,8.00
2024-01-11T08:58:12.493Z,9.00
2024-01-11T09:00:45.454Z,9.00
2024-01-11T09:03:18.834Z,8.50
2024-01-11T09:05:51.752Z,8.70
2024-01-11T09:08:24.433Z,11.70
2024-01-11T09:10:57.104Z,11.70
2024-01-11T09:13:30.516Z,8.80
2024-01-11T09:16:03.162Z,8.80
2024-01-11T09:18:36.399Z,9.20
2024-01-11T09:21:09.218Z,9.30
2024-01-11T09:23:42.119Z,10.20
2024-01-11T09:26:14.912Z,8.60
2024-01-11T09:28:48.005Z,10.00
2024-01-11T09:31:20.494Z,9.20
2024-01-11T09:33:54.294Z,10.70
2024-01-11T09:36:27.121Z,9.40
2024-01-11T09:38:59.986Z,7.90
2024-01-11T09:41:33.852Z,8.00
2024-01-11T09:44:08.572Z,9.10
2024-01-11T09:46:44.188Z,7.90
2024-01-11T09:49:21.696Z,7.40
2024-01-11T09:51:58.013Z,6.90
2024-01-11T09:54:31.080Z,6.50
2024-01-11T09:57:04.913Z,7.30
2024-01-11T09:59:38.520Z,8.80
2024-01-11T10:02:13.648Z,7.20
2024-01-11T10:04:46.904Z,7.10
2024-01-11T10:07:22.164Z,6.90
2024-01-11T10:09:55.436Z,6.80
2024-01-11T10:12:28.492Z,7.70
2024-01-11T10:15:11.221Z,7.20
2024-01-11T10:17:47.144Z,7.40
2024-01-11T10:20:25.325Z,8.60
2024-01-11T10:22:58.980Z,7.70
2024-01-11T10:25:32.124Z,7.30
2024-01-11T10:28:04.940Z,9.20
2024-01-11T10:30:37.622Z,9.40
2024-01-11T10:33:11.175Z,9.00
2024-01-11T10:35:44.552Z,9.10
2024-01-11T10:38:18.672Z,10.60
2024-01-11T10:40:51.821Z,11.10
2024-01-11T10:43:25.692Z,12.90
2024-01-11T10:46:05.479Z,10.10
2024-01-11T10:48:41.514Z,9.20
2024-01-11T10:51:21.582Z,10.20
2024-01-11T10:53:55.844Z,14.70
2024-01-11T10:56:33.380Z,9.30
2024-01-11T10:59:07.348Z,10.30
2024-01-11T11:01:41.478Z,10.10
2024-01-11T11:04:15.708Z,11.10
2024-01-11T11:06:48.959Z,12.90
2024-01-11T11:09:22.738Z,9.80
2024-01-11T11:11:58.680Z,10.50
2024-01-11T11:14:33.324Z,17.50
2024-01-11T11:17:06.632Z,11.30
2024-01-11T11:19:39.382Z,7.80
2024-01-11T11:22:16.275Z,10.30
2024-01-11T11:24:48.875Z,8.20
2024-01-11T11:27:21.479Z,9.10
2024-01-11T11:29:54.686Z,7.80
2024-01-11T11:32:40.204Z,7.60
2024-01-11T11:37:44.295Z,8.60
2024-01-11T11:40:17.965Z,8.20
2024-01-11T11:42:50.661Z,8.00
2024-01-11T11:45:30.072Z,6.60
2024-01-11T11:48:02.935Z,6.70
2024-01-11T11:50:36.659Z,7.20
2024-01-11T11:53:13.588Z,7.40
2024-01-11T11:55:46.273Z,7.20
2024-01-11T11:58:19.480Z,7.10
2024-01-11T12:00:53.145Z,7.10
2024-01-11T12:03:30.978Z,6.90
2024-01-11T12:06:04.113Z,8.10
2024-01-11T12:08:37.245Z,9.60
2024-01-11T12:11:10.093Z,8.60
2024-01-11T12:13:45.698Z,14.80
2024-01-11T12:16:18.396Z,17.80
2024-01-11T12:18:52.811Z,14.40
2024-01-11T12:21:25.632Z,17.20
2024-01-11T12:23:58.725Z,8.90
2024-01-11T12:26:31.797Z,9.00
2024-01-11T12:29:04.692Z,7.70
2024-01-11T12:31:37.537Z,7.00
2024-01-11T12:34:11.207Z,8.40
2024-01-11T12:36:44.687Z,7.40
2024-01-11T12:39:18.845Z,7.00
2024-01-11T12:41:51.708Z,7.40
2024-01-11T12:44:25.229Z,6.60
2024-01-11T12:47:02.011Z,8.80
2024-01-11T12:49:35.347Z,7.60
2024-01-11T12:52:08.290Z,7.20
2024-01-11T12:54:40.889Z,7.50
2024-01-11T12:57:15.368Z,7.30
2024-01-11T12:59:47.982Z,6.70
2024-01-11T13:02:21.217Z,8.30
2024-01-11T13:04:54.388Z,7.80
2024-01-11T13:07:27.452Z,7.00
2024-01-11T13:10:00.212Z,6.30
2024-01-11T13:12:32.883Z,8.40
2024-01-11T13:15:06.458Z,7.60
2024-01-11T13:17:39.104Z,6.10
2024-01-11T13:20:14.386Z,7.20
2024-01-11T13:25:17.999Z,7.10
2024-01-11T13:27:50.547Z,8.10
2024-01-11T13:30:23.504Z,7.70
2024-01-11T13:32:56.239Z,9.00
2024-01-11T13:35:29.171Z,8.10
2024-01-11T13:38:01.926Z,6.90
2024-01-11T13:40:35.565Z,6.60
2024-01-11T13:43:08.150Z,21.30
2024-01-11T13:45:40.999Z,7.80
2024-01-11T13:48:13.640Z,7.50
2024-01-11T13:50:46.630Z,8.10
2024-01-11T13:53:19.308Z,8.30
2024-01-11T13:55:52.493Z,6.60
2024-01-11T13:58:25.324Z,7.00
2024-01-11T14:00:58.612Z,9.10
2024-01-11T14:03:31.520Z,7.00
2024-01-11T14:06:05.566Z,6.90
2024-01-11T14:08:38.278Z,8.40
2024-01-11T14:11:10.930Z,7.70
2024-01-11T14:13:43.555Z,8.70
2024-01-11T14:16:17.164Z,9.70
2024-01-11T14:18:50.688Z,13.00
2024-01-11T14:21:26.145Z,12.80
2024-01-11T14:23:59.802Z,11.60
2024-01-11T14:26:33.988Z,8.70
2024-01-11T14:29:06.555Z,9.00
2024-01-11T14:31:40.456Z,7.00
2024-01-11T14:34:13.978Z,11.10
2024-01-11T14:36:46.742Z,13.90
2024-01-11T14:39:19.362Z,7.90
2024-01-11T14:41:52.253Z,8.80
2024-01-11T14:44:24.971Z,8.10
2024-01-11T14:46:58.689Z,8.60
2024-01-11T14:49:31.310Z,6.50
2024-01-11T14:52:04.309Z,6.30
2024-01-11T14:54:37.095Z,7.80
2024-01-11T14:57:10.312Z,7.30
2024-01-11T14:59:42.900Z,8.50
2024-01-11T15:02:15.781Z,13.10
2024-01-11T15:04:48.499Z,10.30
2024-01-11T15:07:21.180Z,9.70
2024-01-11T15:09:53.655Z,8.90
2024-01-11T15:12:26.265Z,15.60
2024-01-11T15:14:59.859Z,12.70
2024-01-11T15:17:32.892Z,9.50
2024-01-11T15:20:06.065Z,16.20
2024-01-11T15:22:38.829Z,10.60
2024-01-11T15:25:13.138Z,13.00
2024-01-11T15:27:45.729Z,17.70
2024-01-11T15:30:18.741Z,15.70
2024-01-11T15:32:51.569Z,19.10
2024-01-11T15:35:24.200Z,16.70
2024-01-11T15:37:56.832Z,18.50
2024-01-11T15:40:29.371Z,17.80
2024-01-11T15:43:02.719Z,18.40
2024-01-11T15:45:36.934Z,26.90
2024-01-11T15:48:10.700Z,18.30
2024-01-11T15:50:43.533Z,18.90
2024-01-11T15:53:16.183Z,15.70
2024-01-11T15:55:49.694Z,14.30
2024-01-11T15:58:22.270Z,18.30
2024-01-11T16:00:55.081Z,23.50
2024-01-11T16:03:27.773Z,21.50
2024-01-11T16:06:00.867Z,18.80
2024-01-11T16:08:34.143Z,17.50
2024-01-11T16:11:07.036Z,26.20
2024-01-11T16:13:41.006Z,23.60
2024-01-11T16:16:13.602Z,19.70
2024-01-11T16:18:46.508Z,13.90
2024-01-11T16:21:19.110Z,16.70
2024-01-11T16:23:52.389Z,23.40
2024-01-11T16:26:25.070Z,20.90
2024-01-11T16:28:58.074Z,16.80
2024-01-11T16:31:30.948Z,13.00
2024-01-11T16:34:04.747Z,19.10
2024-01-11T16:36:41.272Z,16.00
2024-01-11T16:39:14.068Z,17.10
2024-01-11T16:41:48.985Z,15.30
2024-01-11T16:46:54.875Z,11.60
2024-01-11T16:49:27.649Z,10.70
2024-01-11T16:52:02.099Z,8.50
2024-01-11T16:54:34.636Z,9.80
2024-01-11T16:57:09.462Z,11.80
2024-01-11T16:59:42.410Z,7.40
2024-01-11T17:02:15.199Z,9.50
2024-01-11T17:04:47.799Z,8.50
2024-01-11T17:07:20.324Z,8.70
2024-01-11T17:09:53.034Z,7.80
2024-01-11T17:12:25.629Z,12.00
2024-01-11T17:14:58.455Z,10.40
2024-01-11T17:17:31.971Z,9.50
2024-01-11T17:20:04.872Z,16.70
2024-01-11T17:22:37.742Z,19.10
2024-01-11T17:25:13.538Z,15.20
2024-01-11T17:27:46.132Z,9.00
2024-01-11T17:30:19.781Z,26.20
2024-01-11T17:32:52.722Z,15.80
2024-01-11T17:35:25.602Z,18.40
2024-01-11T17:37:58.126Z,14.10
2024-01-11T17:40:31.432Z,15.50
2024-01-11T17:43:05.968Z,19.60
2024-01-11T17:45:39.607Z,10.00
2024-01-11T17:48:12.272Z,14.60
2024-01-11T17:50:45.486Z,12.00
2024-01-11T17:53:19.346Z,11.10
2024-01-11T17:55:51.882Z,9.40
2024-01-11T17:58:24.815Z,8.50
2024-01-11T18:00:59.416Z,9.30
2024-01-11T18:03:31.988Z,11.70
2024-01-11T18:06:04.754Z,10.90
2024-01-11T18:08:37.395Z,18.10
2024-01-11T18:11:11.670Z,24.30
2024-01-11T18:13:44.245Z,16.40
2024-01-11T18:16:16.972Z,26.90
2024-01-11T18:18:50.916Z,24.10
2024-01-11T18:21:23.700Z,23.90
2024-01-11T18:23:57.025Z,26.70
2024-01-11T18:26:31.172Z,20.90
2024-01-11T18:29:04.512Z,22.00
2024-01-11T18:31:37.428Z,18.30
2024-01-11T18:34:10.621Z,21.90
2024-01-11T18:36:49.650Z,29.90
2024-01-11T18:39:22.246Z,28.60
2024-01-11T18:41:55.045Z,24.70
2024-01-11T18:44:27.867Z,24.90
2024-01-11T18:47:01.167Z,28.70
2024-01-11T18:49:34.238Z,23.60
2024-01-11T18:52:07.789Z,26.40
2024-01-11T18:54:40.303Z,24.90
2024-01-11T18:57:15.371Z,29.00
2024-01-11T18:59:48.061Z,32.50
2024-01-11T19:02:20.823Z,33.20
2024-01-11T19:04:54.276Z,24.80
2024-01-11T19:07:29.255Z,40.80
2024-01-11T19:10:04.790Z,35.20
2024-01-11T19:12:37.458Z,26.20
2024-01-11T19:15:12.369Z,28.90
2024-01-11T19:17:45.032Z,22.70
2024-01-11T19:20:19.818Z,22.50
2024-01-11T19:22:52.492Z,27.70
2024-01-11T19:25:25.419Z,22.80
2024-01-11T19:28:01.002Z,18.00
2024-01-11T19:30:33.636Z,32.70
2024-01-11T19:33:08.014Z,43.30
2024-01-11T19:35:40.896Z,45.80
2024-01-11T19:38:14.952Z,78.70
2024-01-11T19:40:47.566Z,80.90
2024-01-11T19:43:20.366Z,41.80
2024-01-11T19:45:52.902Z,27.40
2024-01-11T19:48:25.961Z,33.20
2024-01-11T19:50:59.588Z,58.00
2024-01-11T19:53:32.302Z,60.60
2024-01-11T19:56:05.906Z,59.30
2024-01-11T19:58:38.732Z,63.40
2024-01-11T20:01:11.540Z,62.00
2024-01-11T20:03:44.426Z,55.70
2024-01-11T20:06:17.410Z,45.60
2024-01-11T20:08:51.557Z,45.20
2024-01-11T20:11:25.092Z,42.00
2024-01-11T20:13:58.003Z,37.60
2024-01-11T20:16:30.529Z,38.20
2024-01-11T20:19:03.135Z,36.90
2024-01-11T20:21:35.937Z,39.10
2024-01-11T20:24:36.185Z,34.60
2024-01-11T20:27:09.477Z,29.40
2024-01-11T20:29:42.571Z,30.40
2024-01-11T20:32:15.224Z,21.50
2024-01-11T20:34:47.860Z,27.00
2024-01-11T20:37:20.537Z,29.00
2024-01-11T20:39:53.268Z,34.00
2024-01-11T20:42:25.882Z,29.40
2024-01-11T20:44:58.533Z,24.00
2024-01-11T20:47:31.383Z,30.80
2024-01-11T20:50:04.123Z,29.90
2024-01-11T20:52:37.144Z,34.60
2024-01-11T20:55:09.837Z,29.60
2024-01-11T20:57:42.368Z,26.20
2024-01-11T21:00:20.015Z,20.40
2024-01-11T21:02:54.508Z,10.20
2024-01-11T21:05:32.511Z,15.00
2024-01-11T21:08:05.424Z,14.80
2024-01-11T21:10:38.069Z,9.60
2024-01-11T21:13:12.750Z,12.80
2024-01-11T21:15:45.486Z,12.10
2024-01-11T21:18:21.739Z,6.40
2024-01-11T21:20:57.644Z,15.50
2024-01-11T21:23:30.251Z,14.10
2024-01-11T21:26:02.848Z,16.30
2024-01-11T21:28:35.393Z,28.80
2024-01-11T21:31:08.189Z,13.10
2024-01-11T21:33:45.956Z,13.90
2024-01-11T21:36:23.741Z,16.10
2024-01-11T21:38:59.301Z,26.40
2024-01-11T21:44:03.458Z,15.00
2024-01-11T21:46:36.271Z,7.40
2024-01-11T21:49:09.449Z,9.20
2024-01-11T21:51:42.258Z,6.20
2024-01-11T21:54:14.876Z,21.30
2024-01-11T21:56:47.803Z,30.30
2024-01-11T21:59:30.713Z,29.70
2024-01-11T22:02:03.429Z,204.20
2024-01-11T22:04:36.001Z,132.90
2024-01-11T22:07:10.328Z,96.90
2024-01-11T22:09:44.765Z,128.60
2024-01-11T22:12:19.626Z,98.20
2024-01-11T22:14:52.622Z,49.70
2024-01-11T22:17:25.582Z,37.80
2024-01-11T22:19:58.452Z,26.80
2024-01-11T22:22:31.337Z,27.00
2024-01-11T22:25:04.339Z,21.30
2024-01-11T22:27:37.465Z,14.90
2024-01-11T22:30:15.046Z,13.80
2024-01-11T22:32:49.059Z,13.90
2024-01-11T22:35:31.506Z,12.50
2024-01-11T22:38:40.258Z,13.60
2024-01-11T22:41:15.418Z,8.90
2024-01-11T22:43:48.297Z,12.90
2024-01-11T22:46:20.965Z,14.00
2024-01-11T22:48:54.272Z,12.70
2024-01-11T22:51:27.174Z,13.80
2024-01-11T22:54:00.166Z,11.70
2024-01-11T22:56:36.363Z,8.70
2024-01-11T22:59:10.949Z,16.20
2024-01-11T23:01:45.802Z,16.50
2024-01-11T23:04:18.509Z,10.20
2024-01-11T23:06:51.166Z,14.90
2024-01-11T23:09:24.382Z,11.50
2024-01-11T23:11:57.422Z,11.80
2024-01-11T23:14:30.132Z,12.50
2024-01-11T23:17:02.917Z,17.00
2024-01-11T23:19:35.527Z,19.30
2024-01-11T23:22:08.230Z,22.20
2024-01-11T23:24:40.837Z,23.60
2024-01-11T23:27:13.416Z,15.30
2024-01-11T23:29:46.239Z,20.70
2024-01-11T23:32:18.976Z,17.00
2024-01-11T23:34:51.671Z,16.70
2024-01-11T23:37:24.383Z,25.60
2024-01-11T23:39:56.901Z,10.80
2024-01-11T23:42:29.375Z,5.80
2024-01-11T23:45:03.699Z,10.40
2024-01-11T23:47:36.600Z,9.40
2024-01-11T23:50:09.964Z,7.10
2024-01-11T23:52:42.746Z,5.30
2024-01-11T23:55:15.350Z,10.30
2024-01-11T23:57:48.145Z,6.60
